Time;durP1;ratioP1;P1;durP2;ratioP2;P2;SDS_P1;SDS_P2;PMS_P1;PMS_P2;Temp;Humidity;BMP_temperature;BMP_pressure;BME280_temperature;BME280_humidity;BME280_pressure;Samples;Min_cycle;Max_cycle;Signal;HPM_P1;HPM_P2
2020/12/21 00:02:14;;;;;;;11.98;5.07;;;5.70;99.90;;;;;;5084540;28;20047;-82
2020/12/21 00:04:40;;;;;;;7.90;3.40;;;5.70;99.90;;;;;;5086276;28;20044;-82
2020/12/21 00:07:05;;;;;;;18.17;4.97;;;5.80;99.90;;;;;;5086188;28;20025;-81
2020/12/21 00:09:31;;;;;;;6.85;3.95;;;5.70;99.90;;;;;;5088354;28;20024;-80
2020/12/21 00:11:56;;;;;;;6.90;4.45;;;5.60;99.90;;;;;;5087737;28;20029;-83
2020/12/21 00:14:22;;;;;;;6.03;4.03;;;5.60;99.90;;;;;;5084367;28;20072;-79
2020/12/21 00:16:50;;;;;;;7.28;4.63;;;5.70;99.90;;;;;;5084050;28;20075;-81
2020/12/21 00:19:18;;;;;;;11.77;4.32;;;5.60;99.90;;;;;;5084170;28;20035;-81
2020/12/21 00:21:45;;;;;;;6.68;3.40;;;5.60;99.90;;;;;;5083985;28;20029;-81
2020/12/21 00:24:11;;;;;;;12.27;4.68;;;5.70;99.90;;;;;;5083703;28;20032;-82
2020/12/21 00:26:36;;;;;;;11.13;3.25;;;5.70;99.90;;;;;;5083598;28;20029;-80
2020/12/21 00:29:03;;;;;;;7.38;3.28;;;5.70;99.90;;;;;;5085151;28;20033;-80
2020/12/21 00:31:30;;;;;;;6.97;3.63;;;5.80;99.90;;;;;;5083728;28;20055;-80
2020/12/21 00:33:58;;;;;;;5.32;2.97;;;5.80;99.90;;;;;;5083530;28;20032;-81
2020/12/21 00:36:24;;;;;;;11.13;3.47;;;5.80;99.90;;;;;;5083558;28;20041;-80
2020/12/21 00:38:51;;;;;;;11.75;3.92;;;5.90;99.90;;;;;;5083862;28;20115;-81
2020/12/21 00:41:19;;;;;;;8.35;3.72;;;5.90;99.90;;;;;;5083678;28;20020;-82
2020/12/21 00:43:46;;;;;;;5.55;3.03;;;6.00;99.90;;;;;;5083517;28;20048;-78
2020/12/21 00:46:20;;;;;;;12.20;3.38;;;6.10;99.90;;;;;;5084649;28;20101;-79
2020/12/21 00:48:46;;;;;;;5.93;2.83;;;6.10;99.90;;;;;;5083319;28;20469;-79
2020/12/21 00:51:13;;;;;;;4.13;2.67;;;6.20;99.90;;;;;;5083268;28;20104;-80
2020/12/21 00:53:39;;;;;;;6.75;3.67;;;6.40;99.90;;;;;;5083490;28;20020;-81
2020/12/21 00:56:05;;;;;;;11.00;3.42;;;6.20;99.90;;;;;;5083459;28;20036;-80
2020/12/21 00:58:32;;;;;;;4.65;2.25;;;6.20;99.90;;;;;;5083347;28;20378;-80
2020/12/21 01:00:59;;;;;;;5.90;3.63;;;6.30;99.90;;;;;;5084658;28;20031;-83
2020/12/21 01:03:24;;;;;;;5.38;2.63;;;6.30;99.90;;;;;;5083069;28;20021;-80
2020/12/21 01:05:50;;;;;;;3.55;1.92;;;6.30;99.90;;;;;;5083296;28;20032;-81
2020/12/21 01:08:16;;;;;;;4.35;2.83;;;6.40;99.90;;;;;;5083205;28;20558;-80
2020/12/21 01:10:41;;;;;;;5.30;2.42;;;6.40;99.90;;;;;;5083920;28;20031;-81
2020/12/21 01:13:07;;;;;;;5.55;2.15;;;6.40;99.90;;;;;;5083386;28;20405;-81
2020/12/21 01:15:33;;;;;;;4.95;1.98;;;6.40;99.90;;;;;;5082736;28;20071;-82
2020/12/21 01:17:58;;;;;;;12.88;3.03;;;6.40;99.90;;;;;;5084530;28;20040;-83
2020/12/21 01:20:24;;;;;;;11.27;2.67;;;6.40;99.90;;;;;;5084607;28;20029;-83
2020/12/21 01:22:50;;;;;;;6.57;2.35;;;6.50;99.90;;;;;;5083091;28;20060;-80
2020/12/21 01:25:15;;;;;;;3.33;1.98;;;6.60;99.90;;;;;;5082940;28;20147;-83
2020/12/21 01:27:41;;;;;;;2.90;2.60;;;6.50;99.90;;;;;;5083251;28;20037;-80
2020/12/21 01:30:07;;;;;;;13.13;4.15;;;6.70;99.90;;;;;;5083175;28;20464;-82
2020/12/21 01:32:32;;;;;;;6.18;2.17;;;6.70;99.90;;;;;;5083040;28;20024;-81
2020/12/21 01:34:58;;;;;;;8.15;2.50;;;6.60;99.90;;;;;;5082991;28;20036;-82
2020/12/21 01:37:23;;;;;;;4.13;2.58;;;6.60;99.90;;;;;;5083016;28;20116;-82
2020/12/21 01:39:49;;;;;;;5.63;2.75;;;6.60;99.90;;;;;;5082979;28;20025;-82
2020/12/21 01:42:18;;;;;;;11.85;2.53;;;6.60;99.90;;;;;;5082851;28;20021;-82
2020/12/21 01:44:46;;;;;;;4.15;2.72;;;6.60;99.90;;;;;;5082969;28;20036;-83
2020/12/21 01:47:12;;;;;;;3.90;2.22;;;6.70;99.90;;;;;;5082898;28;20025;-82
2020/12/21 01:49:38;;;;;;;7.15;2.72;;;6.60;99.90;;;;;;5082820;28;20064;-82
2020/12/21 01:52:07;;;;;;;11.40;2.95;;;6.60;99.90;;;;;;5085166;28;20020;-81
2020/12/21 01:54:34;;;;;;;12.63;2.67;;;6.60;99.90;;;;;;5085649;28;20116;-81
2020/12/21 01:56:59;;;;;;;20.55;2.53;;;6.60;99.90;;;;;;5084230;28;20045;-82
2020/12/21 01:59:26;;;;;;;8.13;2.80;;;6.60;99.90;;;;;;5083609;28;20032;-82
2020/12/21 02:01:52;;;;;;;3.33;1.70;;;6.50;99.90;;;;;;5082379;28;20033;-84
2020/12/21 02:04:18;;;;;;;12.68;3.25;;;6.50;99.90;;;;;;5083646;28;20079;-83
2020/12/21 02:06:45;;;;;;;10.52;2.65;;;6.70;99.90;;;;;;5084515;28;20028;-83
2020/12/21 02:09:10;;;;;;;8.68;2.83;;;6.50;99.90;;;;;;5082999;28;20025;-80
2020/12/21 02:11:42;;;;;;;9.50;2.45;;;6.70;99.90;;;;;;5082975;28;20029;-82
2020/12/21 02:14:08;;;;;;;10.95;2.90;;;6.60;99.90;;;;;;5083911;28;20077;-82
2020/12/21 02:16:34;;;;;;;9.45;2.85;;;6.60;99.90;;;;;;5087558;28;20060;-81
2020/12/21 02:19:00;;;;;;;6.82;1.95;;;6.60;99.90;;;;;;5086575;28;20025;-82
2020/12/21 02:21:26;;;;;;;9.13;2.20;;;6.70;99.90;;;;;;5088055;28;20108;-84
2020/12/21 02:23:51;;;;;;;6.32;2.08;;;6.70;99.90;;;;;;5086662;28;20548;-82
2020/12/21 02:26:17;;;;;;;2.05;1.15;;;6.70;99.90;;;;;;5086125;28;20369;-81
2020/12/21 02:28:43;;;;;;;7.20;2.20;;;6.60;99.90;;;;;;5086003;28;20035;-82
2020/12/21 02:31:09;;;;;;;7.70;2.22;;;6.60;99.90;;;;;;5085963;28;20083;-84
2020/12/21 02:33:34;;;;;;;3.70;1.67;;;6.60;99.90;;;;;;5085982;28;20032;-83
2020/12/21 02:36:00;;;;;;;4.03;1.73;;;6.60;99.90;;;;;;5086472;28;20058;-83
2020/12/21 02:38:26;;;;;;;2.17;1.75;;;6.50;99.90;;;;;;5086030;28;20028;-83
2020/12/21 02:40:51;;;;;;;7.00;2.10;;;6.50;99.90;;;;;;5086128;28;20044;-81
2020/12/21 02:43:17;;;;;;;4.47;2.25;;;6.50;99.90;;;;;;5085853;28;20029;-82
2020/12/21 02:45:43;;;;;;;4.93;2.28;;;6.40;99.90;;;;;;5085853;28;20028;-81
2020/12/21 02:48:10;;;;;;;6.53;1.88;;;6.40;99.90;;;;;;5085539;28;20039;-83
2020/12/21 02:50:35;;;;;;;3.40;1.60;;;6.40;99.90;;;;;;5085582;28;20021;-80
2020/12/21 02:53:01;;;;;;;11.10;2.38;;;6.40;99.90;;;;;;5087015;28;20025;-84
2020/12/21 02:55:26;;;;;;;3.55;1.83;;;6.40;99.90;;;;;;5085700;28;20039;-82
2020/12/21 02:57:52;;;;;;;5.00;1.98;;;6.40;99.90;;;;;;5085773;28;20026;-83
2020/12/21 03:00:18;;;;;;;3.55;2.05;;;6.40;99.90;;;;;;5085422;28;20115;-82
2020/12/21 03:02:43;;;;;;;5.70;1.75;;;6.40;99.90;;;;;;5085610;28;20114;-82
2020/12/21 03:05:09;;;;;;;10.77;1.85;;;6.30;99.90;;;;;;5085295;28;20054;-83
2020/12/21 03:07:35;;;;;;;4.30;1.90;;;6.40;99.90;;;;;;5085436;28;20111;-84
2020/12/21 03:10:00;;;;;;;5.15;2.45;;;6.30;99.90;;;;;;5085343;28;20063;-83
2020/12/21 03:12:26;;;;;;;6.72;2.53;;;6.40;99.90;;;;;;5085362;28;20029;-83
2020/12/21 03:14:52;;;;;;;5.47;1.83;;;6.30;99.90;;;;;;5085469;28;20048;-83
2020/12/21 03:17:17;;;;;;;2.78;2.22;;;6.30;99.90;;;;;;5086567;28;20099;-84
2020/12/21 03:19:43;;;;;;;6.40;1.85;;;6.20;99.90;;;;;;5085236;28;20170;-84
2020/12/21 03:22:08;;;;;;;7.05;2.15;;;6.30;99.90;;;;;;5085170;28;20025;-81
2020/12/21 03:24:34;;;;;;;5.55;1.83;;;6.30;99.90;;;;;;5084321;28;20500;-83
2020/12/21 03:27:00;;;;;;;5.75;1.38;;;6.30;99.90;;;;;;5085318;28;20073;-83
2020/12/21 03:29:26;;;;;;;4.75;2.13;;;6.30;99.90;;;;;;5085108;28;20096;-83
2020/12/21 03:31:51;;;;;;;5.63;2.22;;;6.30;99.90;;;;;;5085115;28;20043;-82
2020/12/21 03:34:17;;;;;;;3.58;2.17;;;6.20;99.90;;;;;;5084679;28;20036;-82
2020/12/21 03:36:44;;;;;;;3.75;2.03;;;6.20;99.90;;;;;;5084731;28;20045;-82
2020/12/21 03:39:09;;;;;;;3.50;1.30;;;6.20;99.90;;;;;;5084719;28;20038;-82
2020/12/21 03:41:35;;;;;;;7.07;1.85;;;6.20;99.90;;;;;;5084669;28;20107;-82
2020/12/21 03:44:01;;;;;;;10.70;2.05;;;6.20;99.90;;;;;;5084759;28;20029;-83
2020/12/21 03:46:26;;;;;;;8.02;1.67;;;6.10;99.90;;;;;;5084551;28;20034;-84
2020/12/21 03:48:52;;;;;;;1.95;1.55;;;6.10;99.90;;;;;;5086125;28;20036;-84
2020/12/21 03:51:18;;;;;;;7.65;2.30;;;6.10;99.90;;;;;;5084661;28;20092;-83
2020/12/21 03:53:43;;;;;;;3.75;1.73;;;6.10;99.90;;;;;;5084579;28;20028;-83
2020/12/21 03:56:09;;;;;;;12.95;3.10;;;6.10;99.90;;;;;;5084225;28;20096;-83
2020/12/21 03:58:34;;;;;;;10.65;2.42;;;6.00;99.90;;;;;;5084180;28;20021;-82
2020/12/21 04:01:03;;;;;;;13.82;3.08;;;6.00;99.90;;;;;;5084573;28;20076;-83
2020/12/21 04:03:29;;;;;;;2.15;1.25;;;5.90;99.90;;;;;;5084406;28;20028;-82
2020/12/21 04:05:56;;;;;;;7.97;1.92;;;5.80;99.90;;;;;;5084349;28;20028;-83
2020/12/21 04:08:22;;;;;;;5.03;1.65;;;5.80;99.90;;;;;;5086834;28;20096;-82
2020/12/21 04:10:48;;;;;;;11.38;3.03;;;5.70;99.90;;;;;;5089678;28;20152;-82
2020/12/21 04:13:14;;;;;;;3.72;1.50;;;5.70;99.90;;;;;;5089405;28;20543;-82
2020/12/21 04:15:39;;;;;;;4.55;2.08;;;5.60;99.90;;;;;;5088406;28;20052;-83
2020/12/21 04:18:05;;;;;;;4.53;1.48;;;5.60;99.90;;;;;;5088119;28;20065;-83
2020/12/21 04:20:31;;;;;;;2.85;1.40;;;5.60;99.90;;;;;;5084989;28;20092;-84
2020/12/21 04:22:57;;;;;;;11.55;2.58;;;5.50;99.90;;;;;;5084122;28;20024;-84
2020/12/21 04:25:23;;;;;;;6.30;2.45;;;5.50;99.90;;;;;;5084087;28;20039;-84
2020/12/21 04:27:48;;;;;;;4.80;2.22;;;5.50;99.90;;;;;;5084982;28;20086;-82
2020/12/21 04:30:14;;;;;;;11.25;2.38;;;5.50;99.90;;;;;;5084712;28;20029;-83
2020/12/21 04:32:40;;;;;;;4.10;2.00;;;5.50;99.90;;;;;;5083983;28;20035;-84
2020/12/21 04:35:05;;;;;;;3.25;1.92;;;5.50;99.90;;;;;;5083415;28;20070;-84
2020/12/21 04:37:32;;;;;;;3.97;2.17;;;5.60;99.90;;;;;;5082931;28;20032;-84
2020/12/21 04:39:58;;;;;;;6.03;2.88;;;5.50;99.90;;;;;;5083743;28;20024;-84
2020/12/21 04:42:24;;;;;;;5.05;2.45;;;5.50;99.90;;;;;;5083708;28;20051;-85
2020/12/21 04:44:51;;;;;;;4.78;2.50;;;5.50;99.90;;;;;;5083812;28;20393;-85
2020/12/21 04:47:20;;;;;;;6.75;1.65;;;5.50;99.90;;;;;;5083604;28;20056;-85
2020/12/21 04:49:47;;;;;;;2.33;1.60;;;5.50;99.90;;;;;;5083267;28;20078;-82
2020/12/21 04:52:14;;;;;;;4.13;2.25;;;5.50;99.90;;;;;;5083432;28;20170;-83
2020/12/21 04:54:40;;;;;;;5.05;1.92;;;5.50;99.90;;;;;;5083218;28;20078;-83
2020/12/21 04:57:06;;;;;;;12.00;2.70;;;5.40;99.90;;;;;;5083291;28;20424;-83
2020/12/21 04:59:32;;;;;;;3.95;1.83;;;5.40;99.90;;;;;;5083577;28;20047;-84
2020/12/21 05:01:58;;;;;;;8.38;2.13;;;5.40;99.90;;;;;;5083421;28;20059;-83
2020/12/21 05:04:24;;;;;;;4.60;2.13;;;5.40;99.90;;;;;;5083215;28;20492;-83
2020/12/21 05:06:52;;;;;;;3.85;2.15;;;5.40;99.90;;;;;;5083818;28;20381;-83
2020/12/21 05:09:20;;;;;;;5.60;2.15;;;5.40;99.90;;;;;;5083245;28;20149;-84
2020/12/21 05:11:53;;;;;;;4.68;2.33;;;5.40;99.90;;;;;;5083272;28;20119;-83
2020/12/21 05:14:19;;;;;;;8.05;2.97;;;5.30;99.90;;;;;;5083100;28;20095;-84
2020/12/21 05:16:45;;;;;;;4.68;2.30;;;5.30;99.90;;;;;;5083124;28;20466;-82
2020/12/21 05:19:21;;;;;;;10.90;2.10;;;5.30;99.90;;;;;;5083223;28;20131;-82
2020/12/21 05:21:54;;;;;;;7.32;2.00;;;5.30;99.90;;;;;;5084105;28;20620;-84
2020/12/21 05:24:22;;;;;;;11.15;2.63;;;5.20;99.90;;;;;;5083079;28;20040;-83
2020/12/21 05:26:48;;;;;;;7.57;3.00;;;5.20;99.90;;;;;;5083232;28;20119;-84
2020/12/21 05:29:27;;;;;;;12.63;3.53;;;5.20;99.90;;;;;;5082888;28;20043;-83
2020/12/21 05:31:53;;;;;;;7.40;3.45;;;5.20;99.90;;;;;;5083320;28;20028;-85
2020/12/21 05:34:29;;;;;;;6.07;3.03;;;5.20;99.90;;;;;;5082998;28;20028;-83
2020/12/21 05:36:54;;;;;;;6.35;3.60;;;5.20;99.90;;;;;;5083301;28;20477;-83
2020/12/21 05:39:20;;;;;;;6.55;2.45;;;5.10;99.90;;;;;;5083251;28;20041;-85
2020/12/21 05:41:46;;;;;;;4.93;2.95;;;5.10;99.90;;;;;;5082889;28;20045;-83
2020/12/21 05:44:12;;;;;;;5.90;2.70;;;5.10;99.90;;;;;;5082722;28;20063;-84
2020/12/21 05:46:37;;;;;;;5.07;3.00;;;5.10;99.90;;;;;;5082880;28;20124;-83
2020/12/21 05:49:03;;;;;;;4.38;2.17;;;5.10;99.90;;;;;;5085411;28;20029;-83
2020/12/21 05:51:33;;;;;;;4.70;2.65;;;5.10;99.90;;;;;;5087331;28;20028;-84
2020/12/21 05:54:01;;;;;;;8.63;2.75;;;5.00;99.90;;;;;;5087417;28;20025;-84
2020/12/21 05:56:28;;;;;;;9.88;3.53;;;5.10;99.90;;;;;;5087042;28;20064;-86
2020/12/21 05:58:55;;;;;;;5.45;3.60;;;5.00;99.90;;;;;;5086969;28;20028;-84
2020/12/21 06:01:21;;;;;;;8.95;3.70;;;5.00;99.90;;;;;;5086589;28;20033;-85
2020/12/21 06:03:51;;;;;;;8.40;2.90;;;5.00;99.90;;;;;;5086466;28;20059;-84
2020/12/21 06:06:24;;;;;;;14.55;3.33;;;5.00;99.90;;;;;;5086601;28;20099;-82
2020/12/21 06:08:54;;;;;;;9.88;3.50;;;5.00;99.90;;;;;;5086675;28;20040;-82
2020/12/21 06:11:21;;;;;;;6.32;2.88;;;4.90;99.90;;;;;;5086635;28;20037;-83
2020/12/21 06:14:08;;;;;;;6.57;3.88;;;4.90;99.90;;;;;;5087408;28;20028;-83
2020/12/21 06:16:36;;;;;;;5.50;3.50;;;5.10;99.90;;;;;;5086394;28;20041;-80
2020/12/21 06:19:06;;;;;;;12.90;3.90;;;4.90;99.90;;;;;;5087742;28;20029;-81
2020/12/21 06:21:34;;;;;;;3.33;2.53;;;4.90;99.90;;;;;;5086273;28;20064;-82
2020/12/21 06:24:00;;;;;;;5.10;2.92;;;4.90;99.90;;;;;;5086386;28;20050;-82
2020/12/21 06:26:37;;;;;;;10.18;4.50;;;4.90;99.90;;;;;;5086260;28;20098;-83
2020/12/21 06:29:23;;;;;;;5.68;3.80;;;4.90;99.90;;;;;;5085756;28;20059;-81
2020/12/21 06:31:52;;;;;;;5.20;2.53;;;4.90;99.90;;;;;;5085806;28;20163;-81
2020/12/21 06:34:30;;;;;;;6.18;3.08;;;4.90;99.90;;;;;;5085884;28;20078;-80
2020/12/21 06:37:16;;;;;;;5.57;3.38;;;4.90;99.90;;;;;;5087559;28;20048;-82
2020/12/21 06:39:42;;;;;;;8.02;3.50;;;4.90;99.90;;;;;;5085745;28;20032;-78
2020/12/21 06:42:13;;;;;;;12.55;3.65;;;4.90;99.90;;;;;;5085927;28;20385;-77
2020/12/21 06:44:40;;;;;;;4.78;2.80;;;4.90;99.90;;;;;;5086957;28;20062;-78
2020/12/21 06:47:11;;;;;;;13.70;3.92;;;4.80;99.90;;;;;;5085176;28;20029;-80
2020/12/21 06:49:37;;;;;;;9.05;4.15;;;4.90;99.90;;;;;;5086491;28;20052;-79
2020/12/21 06:52:03;;;;;;;8.07;3.90;;;4.90;99.90;;;;;;5086963;28;20119;-79
2020/12/21 06:54:28;;;;;;;8.55;3.85;;;4.80;99.90;;;;;;5087163;28;20051;-78
2020/12/21 06:56:54;;;;;;;8.95;3.53;;;4.80;99.90;;;;;;5088086;28;20127;-78
2020/12/21 06:59:22;;;;;;;10.13;4.30;;;4.80;99.90;;;;;;5086505;28;20124;-79
2020/12/21 07:01:49;;;;;;;8.35;3.75;;;4.80;99.90;;;;;;5087640;28;20445;-82
2020/12/21 07:04:20;;;;;;;7.43;4.35;;;4.80;99.90;;;;;;5088972;28;20091;-82
2020/12/21 07:06:47;;;;;;;25.20;4.80;;;4.80;99.90;;;;;;5088908;28;20037;-82
2020/12/21 07:09:15;;;;;;;7.72;2.95;;;4.90;99.90;;;;;;5088833;28;20040;-82
2020/12/21 07:11:42;;;;;;;7.80;3.67;;;4.80;99.90;;;;;;5088651;28;20032;-83
2020/12/21 07:14:11;;;;;;;9.93;3.95;;;4.90;99.90;;;;;;5089695;28;20055;-81
2020/12/21 07:16:37;;;;;;;7.07;3.83;;;4.90;99.90;;;;;;5089221;28;20086;-84
2020/12/21 07:19:03;;;;;;;12.00;3.70;;;4.90;99.90;;;;;;5088103;28;20024;-83
2020/12/21 07:21:31;;;;;;;14.70;4.10;;;4.90;99.90;;;;;;5088210;28;20092;-81
2020/12/21 07:23:58;;;;;;;9.07;3.97;;;4.90;99.90;;;;;;5087283;28;20432;-84
2020/12/21 07:26:26;;;;;;;15.07;3.97;;;4.90;99.90;;;;;;5087554;28;20020;-85
2020/12/21 07:28:51;;;;;;;13.52;4.80;;;5.00;99.90;;;;;;5087324;28;20039;-83
2020/12/21 07:31:18;;;;;;;11.45;4.43;;;5.00;99.90;;;;;;5087656;28;20048;-83
2020/12/21 07:34:02;;;;;;;9.00;3.95;;;5.00;99.90;;;;;;5086848;28;20476;-82
2020/12/21 07:36:38;;;;;;;11.45;4.63;;;5.10;99.90;;;;;;5086911;28;20386;-83
2020/12/21 07:39:14;;;;;;;12.60;4.47;;;5.10;99.90;;;;;;5086851;28;20085;-84
2020/12/21 07:41:45;;;;;;;11.88;3.65;;;5.00;99.90;;;;;;5086369;28;20071;-82
2020/12/21 07:44:16;;;;;;;6.00;3.50;;;5.00;99.90;;;;;;5086064;28;20488;-82
2020/12/21 07:46:51;;;;;;;9.45;3.75;;;5.00;99.90;;;;;;5086556;28;20028;-82
2020/12/21 07:49:18;;;;;;;6.68;3.55;;;5.00;99.90;;;;;;5086769;28;20021;-82
2020/12/21 07:51:44;;;;;;;6.65;3.03;;;4.90;99.90;;;;;;5086353;28;20115;-82
2020/12/21 07:54:12;;;;;;;7.70;3.10;;;4.90;99.90;;;;;;5086205;28;20035;-82
2020/12/21 07:56:38;;;;;;;11.23;4.18;;;4.90;99.90;;;;;;5086167;28;20070;-81
2020/12/21 07:59:15;;;;;;;8.63;3.65;;;4.90;99.90;;;;;;5085831;28;20096;-82
2020/12/21 08:01:41;;;;;;;15.80;3.85;;;4.90;99.90;;;;;;5085628;28;20469;-82
2020/12/21 08:04:17;;;;;;;6.88;3.88;;;4.90;99.90;;;;;;5086018;28;20024;-82
2020/12/21 08:06:44;;;;;;;8.20;2.92;;;4.80;99.90;;;;;;5085428;28;20024;-82
2020/12/21 08:09:09;;;;;;;11.75;4.32;;;4.80;99.90;;;;;;5085168;28;20029;-81
2020/12/21 08:11:36;;;;;;;10.73;3.92;;;4.80;99.90;;;;;;5085669;28;20024;-82
2020/12/21 08:14:02;;;;;;;15.98;4.32;;;4.80;99.90;;;;;;5086020;28;20045;-80
2020/12/21 08:16:28;;;;;;;7.45;4.38;;;4.80;99.90;;;;;;5086912;28;20123;-81
2020/12/21 08:18:54;;;;;;;5.05;3.38;;;4.80;99.90;;;;;;5086438;28;20020;-81
2020/12/21 08:21:24;;;;;;;7.30;3.75;;;4.80;99.90;;;;;;5085860;28;20051;-82
2020/12/21 08:23:57;;;;;;;5.55;3.38;;;4.90;99.90;;;;;;5085407;28;20039;-80
2020/12/21 08:26:26;;;;;;;10.10;3.87;;;4.90;99.90;;;;;;5085997;28;20025;-83
2020/12/21 08:28:54;;;;;;;7.45;3.67;;;4.90;99.90;;;;;;5087338;28;20294;-82
2020/12/21 08:31:24;;;;;;;16.55;4.47;;;4.90;99.90;;;;;;5085859;28;20025;-82
2020/12/21 08:34:08;;;;;;;17.20;3.35;;;4.90;99.90;;;;;;5085866;28;20055;-82
2020/12/21 08:36:36;;;;;;;5.55;3.40;;;5.00;99.90;;;;;;5086630;28;20059;-82
2020/12/21 08:39:20;;;;;;;5.00;2.95;;;5.00;99.90;;;;;;5086140;28;20032;-81
2020/12/21 08:41:58;;;;;;;16.20;4.68;;;5.00;99.90;;;;;;5084984;28;20020;-81
2020/12/21 08:44:28;;;;;;;10.15;3.53;;;5.10;99.90;;;;;;5086532;28;20036;-82
2020/12/21 08:46:57;;;;;;;12.23;3.33;;;5.30;99.90;;;;;;5084890;28;20043;-80
2020/12/21 08:49:25;;;;;;;12.65;3.17;;;5.40;99.90;;;;;;5086398;28;20497;-83
2020/12/21 08:51:51;;;;;;;5.38;3.22;;;5.50;99.90;;;;;;5084474;28;20024;-82
2020/12/21 08:54:17;;;;;;;11.50;3.22;;;5.50;99.90;;;;;;5085698;28;20029;-81
2020/12/21 08:56:47;;;;;;;5.80;3.00;;;5.60;99.90;;;;;;5084257;28;20036;-82
2020/12/21 08:59:13;;;;;;;8.20;2.95;;;5.80;99.90;;;;;;5082927;28;20067;-81
2020/12/21 09:01:45;;;;;;;4.25;2.65;;;5.90;99.90;;;;;;5082722;28;20029;-81
2020/12/21 09:04:11;;;;;;;14.95;3.30;;;6.20;99.90;;;;;;5083077;28;20376;-82
2020/12/21 09:06:37;;;;;;;4.93;2.35;;;6.30;99.90;;;;;;5083140;28;20025;-80
2020/12/21 09:09:04;;;;;;;8.40;2.30;;;6.50;99.90;;;;;;5082942;28;20029;-79
2020/12/21 09:11:29;;;;;;;7.85;2.30;;;6.60;99.90;;;;;;5083565;28;20021;-84
2020/12/21 09:13:55;;;;;;;3.83;1.92;;;6.80;99.90;;;;;;5083904;28;20562;-81
2020/12/21 09:16:29;;;;;;;6.93;1.92;;;7.00;99.90;;;;;;5083301;28;20071;-83
2020/12/21 09:18:57;;;;;;;5.40;2.10;;;7.10;99.90;;;;;;5083643;28;20024;-78
2020/12/21 09:21:25;;;;;;;9.02;2.30;;;7.10;99.90;;;;;;5083574;28;20060;-79
2020/12/21 09:24:01;;;;;;;4.53;1.88;;;7.10;99.90;;;;;;5082999;28;20031;-80
2020/12/21 09:26:28;;;;;;;6.75;2.00;;;7.00;99.90;;;;;;5082903;28;20040;-82
2020/12/21 09:28:54;;;;;;;8.43;1.98;;;6.90;99.90;;;;;;5083355;28;20044;-81
2020/12/21 09:31:22;;;;;;;2.75;1.67;;;7.00;99.90;;;;;;5083089;28;20040;-80
2020/12/21 09:33:48;;;;;;;3.45;1.90;;;7.30;99.90;;;;;;5082791;28;20040;-81
2020/12/21 09:36:18;;;;;;;7.20;1.60;;;7.60;99.90;;;;;;5082571;28;20072;-81
2020/12/21 09:38:45;;;;;;;7.00;2.05;;;7.90;99.90;;;;;;5082702;28;20025;-80
2020/12/21 09:41:16;;;;;;;1.95;1.50;;;8.30;99.90;;;;;;5084326;28;20085;-82
2020/12/21 09:43:43;;;;;;;4.55;1.52;;;8.70;99.90;;;;;;5082461;28;20062;-80
2020/12/21 09:46:10;;;;;;;2.85;1.30;;;9.00;99.90;;;;;;5083282;28;20024;-82
2020/12/21 09:48:36;;;;;;;3.85;1.80;;;9.20;99.90;;;;;;5082948;28;20028;-80
2020/12/21 09:51:02;;;;;;;1.85;1.38;;;9.50;99.90;;;;;;5082832;28;20025;-80
2020/12/21 09:53:27;;;;;;;4.93;1.33;;;9.80;99.90;;;;;;5086520;28;20084;-80
2020/12/21 09:55:53;;;;;;;1.13;0.95;;;10.10;99.90;;;;;;5086516;28;20532;-79
2020/12/21 09:58:19;;;;;;;2.85;1.38;;;10.30;99.90;;;;;;5084502;28;20028;-79
2020/12/21 10:00:46;;;;;;;3.40;1.65;;;10.40;99.90;;;;;;5085228;28;20029;-77
2020/12/21 10:03:11;;;;;;;6.72;0.95;;;10.50;99.90;;;;;;5085998;28;20132;-78
2020/12/21 10:05:37;;;;;;;4.65;1.35;;;10.50;99.90;;;;;;5090724;28;20040;-79
2020/12/21 10:08:03;;;;;;;5.45;1.30;;;10.70;99.90;;;;;;5082893;28;20048;-80
2020/12/21 10:10:29;;;;;;;4.70;1.30;;;11.00;99.90;;;;;;5082781;28;20032;-80
2020/12/21 10:12:54;;;;;;;2.30;1.13;;;11.40;99.90;;;;;;5082991;28;20531;-78
2020/12/21 10:15:20;;;;;;;3.03;1.25;;;11.50;99.90;;;;;;5084164;28;20129;-80
2020/12/21 10:17:46;;;;;;;4.03;1.25;;;11.70;99.90;;;;;;5082662;28;20059;-80
2020/12/21 10:20:11;;;;;;;3.80;1.70;;;11.60;99.90;;;;;;5082563;28;20021;-78
2020/12/21 10:22:37;;;;;;;4.75;1.25;;;11.50;99.90;;;;;;5083724;28;20036;-79
2020/12/21 10:25:03;;;;;;;5.60;1.00;;;11.40;99.90;;;;;;5082832;28;20025;-78
2020/12/21 10:27:30;;;;;;;3.55;1.58;;;11.40;99.90;;;;;;5083722;28;20024;-78
2020/12/21 10:29:58;;;;;;;3.08;1.73;;;11.30;99.90;;;;;;5083862;28;20029;-78
2020/12/21 10:32:23;;;;;;;2.78;1.38;;;11.40;99.90;;;;;;5083043;28;20105;-77
2020/12/21 10:34:49;;;;;;;3.95;1.45;;;11.70;99.90;;;;;;5083266;28;20036;-79
2020/12/21 10:37:14;;;;;;;6.82;1.67;;;11.90;99.90;;;;;;5086808;28;20052;-78
2020/12/21 10:39:40;;;;;;;3.20;1.23;;;12.10;99.90;;;;;;5087189;28;20076;-80
2020/12/21 10:42:06;;;;;;;4.10;1.27;;;12.20;99.90;;;;;;5087472;28;20025;-82
2020/12/21 10:44:32;;;;;;;6.50;1.58;;;12.40;99.90;;;;;;5086362;28;20028;-80
2020/12/21 10:46:59;;;;;;;1.25;1.00;;;12.60;99.90;;;;;;5085521;28;20047;-78
2020/12/21 10:49:25;;;;;;;3.35;1.00;;;12.80;99.90;;;;;;5087078;28;20084;-78
2020/12/21 10:51:51;;;;;;;1.70;1.25;;;12.90;99.90;;;;;;5085443;28;20424;-79
2020/12/21 10:54:17;;;;;;;3.70;1.10;;;13.00;99.90;;;;;;5086753;28;20021;-78
2020/12/21 10:56:42;;;;;;;3.65;1.33;;;13.00;99.90;;;;;;5085142;28;20101;-79
2020/12/21 10:59:08;;;;;;;5.45;1.55;;;12.90;99.90;;;;;;5086196;28;20038;-81
2020/12/21 11:01:34;;;;;;;11.25;1.33;;;;;;;;;;5083975;28;20032;-80
2020/12/21 11:03:59;;;;;;;4.30;0.95;;;13.00;99.90;;;;;;5084587;28;20141;-80
2020/12/21 11:06:25;;;;;;;4.60;1.02;;;13.10;99.90;;;;;;5085235;28;20028;-79
2020/12/21 11:08:52;;;;;;;10.65;1.85;;;13.10;99.90;;;;;;5084962;28;20021;-80
2020/12/21 11:11:25;;;;;;;2.47;1.08;;;13.00;99.90;;;;;;5084740;28;20063;-79
2020/12/21 11:13:52;;;;;;;2.60;1.10;;;12.80;99.90;;;;;;5086242;28;20025;-81
2020/12/21 11:16:17;;;;;;;8.55;1.27;;;12.50;99.90;;;;;;5084601;28;20094;-78
2020/12/21 11:18:43;;;;;;;2.83;1.17;;;12.60;99.90;;;;;;5084471;28;20025;-80
2020/12/21 11:21:08;;;;;;;10.00;1.25;;;12.60;99.90;;;;;;5084540;28;20024;-77
2020/12/21 11:23:38;;;;;;;1.00;0.70;;;12.90;99.90;;;;;;5085626;28;20028;-77
2020/12/21 11:26:04;;;;;;;2.13;1.02;;;13.00;99.90;;;;;;5065814;28;20028;-81
2020/12/21 11:28:29;;;;;;;3.05;0.90;;;13.10;99.90;;;;;;5065807;28;20448;-79
2020/12/21 11:30:55;;;;;;;6.10;1.30;;;13.30;99.90;;;;;;5064465;28;20035;-79
2020/12/21 11:33:20;;;;;;;5.25;1.27;;;13.40;99.90;;;;;;5064238;28;20124;-77
2020/12/21 11:35:46;;;;;;;3.45;1.02;;;13.70;99.90;;;;;;5063692;28;20072;-78
2020/12/21 11:38:11;;;;;;;2.63;0.82;;;13.70;99.90;;;;;;5072871;28;20028;-79
2020/12/21 11:40:37;;;;;;;4.15;1.10;;;13.50;99.90;;;;;;5085207;28;20028;-77
2020/12/21 11:43:03;;;;;;;4.07;1.33;;;13.10;99.90;;;;;;5085637;28;20040;-79
2020/12/21 11:45:28;;;;;;;4.93;1.63;;;12.70;99.90;;;;;;5083969;28;20020;-77
2020/12/21 11:47:54;;;;;;;3.45;0.68;;;12.20;99.90;;;;;;5083738;28;20035;-78
2020/12/21 11:50:19;;;;;;;3.05;1.08;;;11.70;99.90;;;;;;5084125;28;20119;-75
2020/12/21 11:52:45;;;;;;;1.73;1.48;;;11.30;99.90;;;;;;5085278;28;20056;-79
2020/12/21 11:55:11;;;;;;;2.90;1.38;;;10.90;99.90;;;;;;5085064;28;20029;-77
2020/12/21 11:57:37;;;;;;;2.38;0.80;;;10.50;99.90;;;;;;5083258;28;20031;-77
2020/12/21 12:00:04;;;;;;;8.68;1.10;;;10.20;99.90;;;;;;5084672;28;20150;-77
2020/12/21 12:02:29;;;;;;;5.10;1.20;;;10.00;99.90;;;;;;5085294;28;20031;-79
2020/12/21 12:04:55;;;;;;;0.40;0.38;;;9.80;99.90;;;;;;5083458;28;20056;-80
2020/12/21 12:07:21;;;;;;;2.22;1.15;;;9.70;99.90;;;;;;5083956;28;20032;-80
2020/12/21 12:09:46;;;;;;;1.60;1.00;;;9.70;99.90;;;;;;5085493;28;20044;-81
2020/12/21 12:12:12;;;;;;;4.65;1.02;;;9.60;99.90;;;;;;5083980;28;20024;-80
2020/12/21 12:14:38;;;;;;;1.50;0.85;;;9.60;99.90;;;;;;5083579;28;20048;-81
2020/12/21 12:17:03;;;;;;;2.65;1.17;;;9.60;99.90;;;;;;5083365;28;20064;-78
2020/12/21 12:19:29;;;;;;;1.73;0.85;;;9.70;99.90;;;;;;5084991;28;20060;-81
2020/12/21 12:21:55;;;;;;;4.80;0.95;;;9.50;99.90;;;;;;5083628;28;20029;-78
2020/12/21 12:24:21;;;;;;;2.88;0.95;;;9.50;99.90;;;;;;5084813;28;20465;-79
2020/12/21 12:26:47;;;;;;;2.55;1.27;;;9.40;99.90;;;;;;5083561;28;20190;-80
2020/12/21 12:29:15;;;;;;;1.00;0.88;;;9.40;99.90;;;;;;5083591;28;20431;-79
2020/12/21 12:31:41;;;;;;;5.40;0.88;;;9.40;99.90;;;;;;5082958;28;20058;-79
2020/12/21 12:34:09;;;;;;;1.08;0.75;;;9.20;99.90;;;;;;5082472;28;20025;-79
2020/12/21 12:36:40;;;;;;;5.28;0.80;;;9.20;99.90;;;;;;5083034;28;20105;-79
2020/12/21 12:39:09;;;;;;;0.75;0.55;;;9.10;99.90;;;;;;5079936;28;20051;-82
2020/12/21 12:41:39;;;;;;;1.75;0.80;;;9.00;99.90;;;;;;5085912;28;20031;-79
2020/12/21 12:44:16;;;;;;;3.55;0.90;;;8.90;99.90;;;;;;5088120;28;20028;-81
2020/12/21 12:46:46;;;;;;;3.47;1.08;;;9.10;99.90;;;;;;5088866;28;20024;-78
2020/12/21 12:49:11;;;;;;;2.00;0.90;;;8.80;99.90;;;;;;5087132;28;20028;-80
2020/12/21 12:51:43;;;;;;;5.80;0.75;;;9.00;99.90;;;;;;5088752;28;20209;-80
2020/12/21 12:54:09;;;;;;;6.05;1.33;;;8.80;99.90;;;;;;5083194;28;20043;-80